La Violeta, Argentina
Current Conditions -  °F | °C
As of 4:00 PM on Friday 21 Nov 2014 (Local Time) from SAAR Reporting Station
Broken Clouds Broken Clouds  
Wind Chill: 21°   Ceiling: 20000
Heat Index: 21°   Visibility: 6mi
Dew Point: 13°   Wind: 7mph
Humidity: 60%   Direction: 140°SE
Pressure: 29.88"   Gusts: NA
Location:  33.73°S, 60.17°W
Report Text: SAAR 211900Z 14006KT 9999 FEW028 SCT032BKN200 21/13 Q1012
Loading
Personal Weather Stations






























Interactive Weather Map New forecast layout! Learn more

10-Day Weather Forecast

Advertisements
Track Severe Weather on mobile